Time;durP1;ratioP1;P1;durP2;ratioP2;P2;SDS_P1;SDS_P2;PMS_P1;PMS_P2;Temp;Humidity;BMP_temperature;BMP_pressure;BME280_temperature;BME280_humidity;BME280_pressure;Samples;Min_cycle;Max_cycle;Signal;HPM_P1;HPM_P2
2022/04/05 00:00:51;;;;;;;20.13;13.20;;;;;;;10.32;53.17;101228.94;5033740;28;20494;-64
2022/04/05 00:03:18;;;;;;;17.65;13.38;;;;;;;10.30;53.15;101230.81;5033791;28;20063;-64
2022/04/05 00:05:45;;;;;;;15.38;12.30;;;;;;;10.24;53.05;101224.06;5033939;28;20072;-66
2022/04/05 00:08:12;;;;;;;17.88;12.82;;;;;;;10.24;53.00;101223.22;5032706;28;20049;-65
2022/04/05 00:10:39;;;;;;;18.30;12.82;;;;;;;10.24;53.00;101218.81;5033590;28;20113;-64
2022/04/05 00:13:05;;;;;;;15.95;12.23;;;;;;;10.22;52.88;101215.44;5033571;28;20072;-65
2022/04/05 00:15:33;;;;;;;16.90;12.55;;;;;;;10.17;52.88;101221.81;5033509;28;20045;-65
2022/04/05 00:18:01;;;;;;;15.63;12.05;;;;;;;10.13;52.84;101213.22;5033611;28;20046;-65
2022/04/05 00:20:28;;;;;;;16.05;12.68;;;;;;;10.05;52.75;101204.88;5033416;28;20046;-65
2022/04/05 00:22:55;;;;;;;14.23;12.07;;;;;;;10.01;52.85;101208.56;5033529;28;20486;-64
2022/04/05 00:25:22;;;;;;;17.38;13.00;;;;;;;9.99;52.78;101205.16;5032088;28;20045;-65
2022/04/05 00:27:49;;;;;;;17.15;12.90;;;;;;;9.95;52.70;101197.47;5033377;28;20050;-66
2022/04/05 00:30:16;;;;;;;16.30;12.02;;;;;;;9.90;52.74;101204.69;5033257;28;20042;-65
2022/04/05 00:32:43;;;;;;;15.98;11.90;;;;;;;9.89;52.75;101205.59;5033060;28;20482;-66
2022/04/05 00:35:10;;;;;;;14.02;11.05;;;;;;;9.88;52.77;101201.28;5033185;28;20060;-64
2022/04/05 00:37:37;;;;;;;14.93;11.55;;;;;;;9.85;52.86;101201.41;5033049;28;20103;-66
2022/04/05 00:40:05;;;;;;;14.85;12.00;;;;;;;9.78;52.82;101198.22;5033091;28;20060;-66
2022/04/05 00:42:33;;;;;;;14.43;11.32;;;;;;;9.77;52.71;101198.31;5031986;28;20045;-64
2022/04/05 00:45:00;;;;;;;19.55;13.25;;;;;;;9.71;52.91;101199.41;5033158;28;20068;-66
2022/04/05 00:47:28;;;;;;;14.75;11.70;;;;;;;9.71;52.83;101198.56;5031919;28;20071;-66
2022/04/05 00:49:55;;;;;;;15.05;11.45;;;;;;;9.71;52.87;101193.34;5032826;28;20047;-64
2022/04/05 00:52:23;;;;;;;15.95;12.30;;;;;;;9.74;52.81;101187.97;5032960;28;20049;-64
2022/04/05 00:54:52;;;;;;;16.75;12.52;;;;;;;9.74;52.70;101195.84;5032728;28;20504;-65
2022/04/05 00:57:24;;;;;;;15.18;11.45;;;;;;;9.67;52.93;101195.25;5032653;28;20050;-65
2022/04/05 00:59:57;;;;;;;16.33;12.32;;;;;;;9.72;52.72;101195.03;5031433;28;20049;-65
2022/04/05 01:02:27;;;;;;;18.13;12.80;;;;;;;9.66;52.96;101195.31;5032631;28;20107;-66
2022/04/05 01:04:54;;;;;;;15.70;12.38;;;;;;;9.62;52.80;101186.75;5032805;28;20045;-65
2022/04/05 01:07:24;;;;;;;16.73;12.43;;;;;;;9.54;53.37;101175.78;5032681;28;20457;-65
2022/04/05 01:09:53;;;;;;;17.23;12.57;;;;;;;9.48;53.24;101188.22;5032713;28;20502;-64
2022/04/05 01:12:21;;;;;;;18.27;13.35;;;;;;;9.46;53.42;101179.59;5032516;28;20049;-67
2022/04/05 01:14:49;;;;;;;16.02;12.88;;;;;;;9.41;53.61;101184.19;5032602;28;20045;-64
2022/04/05 01:17:17;;;;;;;18.00;13.07;;;;;;;9.39;53.43;101175.53;5031539;28;20049;-65
2022/04/05 01:19:48;;;;;;;14.48;12.27;;;;;;;9.31;53.81;101173.25;5032545;28;20041;-66
2022/04/05 01:22:15;;;;;;;14.75;11.70;;;;;;;9.21;53.87;101178.97;5032441;28;20086;-66
2022/04/05 01:24:42;;;;;;;15.82;12.35;;;;;;;9.19;53.98;101176.41;5032360;28;20045;-65
2022/04/05 01:27:16;;;;;;;17.00;13.07;;;;;;;9.21;53.79;101171.13;5032408;28;20049;-65
2022/04/05 01:29:43;;;;;;;17.77;13.07;;;;;;;9.19;54.03;101165.94;5031223;28;20108;-66
2022/04/05 01:32:10;;;;;;;16.48;12.30;;;;;;;9.16;53.86;101173.94;5032338;28;20041;-65
2022/04/05 01:34:39;;;;;;;20.70;13.60;;;;;;;9.11;54.32;101170.66;5031427;28;20110;-64
2022/04/05 01:37:10;;;;;;;16.48;12.88;;;;;;;9.12;54.17;101164.53;5032452;28;20045;-66
2022/04/05 01:39:39;;;;;;;16.20;12.77;;;;;;;9.06;54.48;101155.16;5032214;28;20061;-64
2022/04/05 01:42:12;;;;;;;15.73;12.63;;;;;;;9.08;54.49;101152.50;5032365;28;20090;-66
2022/04/05 01:44:40;;;;;;;20.15;12.32;;;;;;;9.07;54.47;101151.63;5032197;28;20049;-64
2022/04/05 01:47:09;;;;;;;18.00;14.10;;;;;;;9.04;54.64;101141.28;5032085;28;20050;-64
2022/04/05 01:49:37;;;;;;;18.75;13.07;;;;;;;9.04;54.96;101151.78;5030529;28;20045;-64
2022/04/05 01:52:04;;;;;;;15.52;12.88;;;;;;;9.02;54.92;101143.13;5032093;28;20509;-66
2022/04/05 01:54:31;;;;;;;16.60;12.90;;;;;;;8.99;55.05;101136.25;5031962;28;20222;-64
2022/04/05 01:56:58;;;;;;;18.42;13.82;;;;;;;8.97;55.09;101145.94;5032032;28;20490;-66
2022/04/05 01:59:28;;;;;;;17.13;13.10;;;;;;;8.95;55.00;101144.28;5034448;28;20052;-64
2022/04/05 02:01:55;;;;;;;16.60;12.52;;;;;;;8.89;55.09;101137.56;5036148;28;20068;-66
2022/04/05 02:04:22;;;;;;;18.33;13.32;;;;;;;8.88;55.08;101135.03;5036295;28;20057;-65
2022/04/05 02:06:49;;;;;;;16.73;12.98;;;;;;;8.85;55.05;101135.16;5034933;28;20046;-66
2022/04/05 02:09:17;;;;;;;16.27;12.68;;;;;;;8.81;54.88;101126.56;5035774;28;20530;-64
2022/04/05 02:11:46;;;;;;;15.90;12.52;;;;;;;8.75;55.13;101119.84;5036018;28;20052;-65
2022/04/05 02:14:15;;;;;;;18.50;13.27;;;;;;;8.73;54.90;101119.06;5035734;28;20056;-64
2022/04/05 02:16:42;;;;;;;19.25;12.43;;;;;;;8.77;54.75;101115.41;5035567;28;20085;-65
2022/04/05 02:19:11;;;;;;;17.98;12.30;;;;;;;8.72;54.94;101114.72;5035776;28;20041;-65
2022/04/05 02:21:38;;;;;;;18.58;13.30;;;;;;;8.69;54.88;101109.66;5035627;28;20509;-66
2022/04/05 02:24:05;;;;;;;16.67;12.43;;;;;;;8.65;55.06;101102.84;5034298;28;20045;-66
2022/04/05 02:26:32;;;;;;;15.70;12.13;;;;;;;8.61;55.03;101111.75;5035589;28;20410;-65
2022/04/05 02:28:58;;;;;;;17.63;13.15;;;;;;;8.58;54.87;101104.00;5035740;28;20509;-65
2022/04/05 02:31:25;;;;;;;16.08;12.88;;;;;;;8.60;54.88;101099.59;5035460;28;20050;-63
2022/04/05 02:33:52;;;;;;;20.85;13.90;;;;;;;8.58;54.91;101097.03;5035385;28;20497;-65
2022/04/05 02:36:19;;;;;;;22.35;13.02;;;;;;;8.55;54.92;101094.53;5035111;28;20494;-65
2022/04/05 02:38:45;;;;;;;18.88;13.10;;;;;;;8.52;55.00;101092.06;5035385;28;20482;-63
2022/04/05 02:41:12;;;;;;;14.65;12.57;;;;;;;8.56;54.92;101092.75;5034073;28;20057;-66
2022/04/05 02:43:39;;;;;;;14.55;12.43;;;;;;;8.54;55.21;101089.38;5035359;28;20482;-64
2022/04/05 02:46:08;;;;;;;17.15;12.80;;;;;;;8.52;55.30;101089.44;5035497;28;20103;-67
2022/04/05 02:48:35;;;;;;;16.55;13.05;;;;;;;8.48;55.34;101086.09;5035426;28;20076;-64
2022/04/05 02:51:02;;;;;;;17.60;13.20;;;;;;;8.46;55.59;101084.47;5035421;28;20406;-66
2022/04/05 02:53:29;;;;;;;20.08;13.23;;;;;;;8.48;55.58;101086.09;5035220;28;20045;-66
2022/04/05 02:55:56;;;;;;;16.67;13.32;;;;;;;8.50;55.42;101086.03;5034101;28;20054;-65
2022/04/05 02:58:22;;;;;;;19.33;13.63;;;;;;;8.53;55.37;101085.06;5035158;28;20421;-65
2022/04/05 03:00:49;;;;;;;17.20;13.38;;;;;;;8.54;55.59;101082.38;5034966;28;20486;-64
2022/04/05 03:03:16;;;;;;;17.45;13.13;;;;;;;8.54;55.39;101081.53;5031207;28;20482;-65
2022/04/05 03:05:42;;;;;;;17.80;13.77;;;;;;;8.53;55.49;101072.81;5032049;28;20108;-66
2022/04/05 03:08:09;;;;;;;20.80;15.30;;;;;;;8.48;55.81;101083.50;5031579;28;20088;-64
2022/04/05 03:10:36;;;;;;;19.13;14.73;;;;;;;8.44;55.72;101074.06;5030455;28;20054;-65
2022/04/05 03:13:04;;;;;;;18.67;14.35;;;;;;;8.43;55.75;101074.09;5030694;28;20430;-65
2022/04/05 03:15:30;;;;;;;22.77;15.20;;;;;;;8.39;55.76;101065.53;5031290;28;20107;-66
2022/04/05 03:17:58;;;;;;;20.92;15.95;;;;;;;8.39;55.67;101062.06;5031572;28;20041;-66
2022/04/05 03:20:25;;;;;;;21.08;15.23;;;;;;;8.41;55.51;101065.47;5031516;28;20055;-66
2022/04/05 03:22:53;;;;;;;22.23;15.60;;;;;;;8.40;55.56;101063.78;5031516;28;20049;-64
2022/04/05 03:25:21;;;;;;;21.08;15.48;;;;;;;8.41;55.57;101058.47;5031265;28;20045;-66
2022/04/05 03:27:48;;;;;;;24.67;15.70;;;;;;;8.43;55.58;101058.41;5030244;28;20127;-64
2022/04/05 03:30:16;;;;;;;23.10;15.55;;;;;;;8.42;55.64;101054.94;5031339;28;20067;-66
2022/04/05 03:32:42;;;;;;;26.48;15.38;;;;;;;8.37;55.70;101059.53;5031127;28;20053;-66
2022/04/05 03:35:09;;;;;;;22.58;14.68;;;;;;;8.33;56.00;101053.56;5030914;28;20069;-65
2022/04/05 03:37:36;;;;;;;21.48;14.20;;;;;;;8.28;56.08;101057.31;5031105;28;20059;-64
2022/04/05 03:40:05;;;;;;;20.90;14.73;;;;;;;8.28;55.91;101050.31;5030930;28;20045;-64
2022/04/05 03:42:32;;;;;;;18.92;14.65;;;;;;;8.27;55.93;101058.22;5030888;28;20079;-64
2022/04/05 03:44:59;;;;;;;20.40;15.02;;;;;;;8.26;55.99;101059.13;5030128;28;20063;-64
2022/04/05 03:47:27;;;;;;;19.35;13.88;;;;;;;8.23;56.06;101057.50;5030731;28;20050;-66
2022/04/05 03:49:54;;;;;;;22.17;13.73;;;;;;;8.20;55.98;101062.81;5030330;28;20049;-64
2022/04/05 03:52:20;;;;;;;22.17;13.73;;;;;;;8.14;56.08;101055.28;5031082;28;20046;-63
2022/04/05 03:54:47;;;;;;;21.88;13.60;;;;;;;8.10;56.13;101061.50;5030779;28;20080;-64
2022/04/05 03:57:14;;;;;;;21.20;14.50;;;;;;;8.04;56.15;101060.00;5030974;28;20053;-64
2022/04/05 03:59:41;;;;;;;17.15;13.10;;;;;;;8.05;56.23;101058.25;5030780;28;20042;-67
2022/04/05 04:02:08;;;;;;;17.20;13.32;;;;;;;8.05;56.33;101068.69;5029215;28;20084;-64
2022/04/05 04:04:35;;;;;;;24.98;19.30;;;;;;;8.03;55.96;101052.25;5029875;28;20387;-65
2022/04/05 04:07:02;;;;;;;21.08;14.10;;;;;;;8.03;55.75;101055.69;5030663;28;20045;-66
2022/04/05 04:09:29;;;;;;;20.27;14.40;;;;;;;7.99;55.85;101062.81;5030535;28;20085;-66
2022/04/05 04:11:55;;;;;;;21.20;13.77;;;;;;;7.99;55.88;101060.19;5030881;28;20054;-64
2022/04/05 04:14:22;;;;;;;18.35;14.55;;;;;;;7.94;55.81;101062.16;5030599;28;20095;-66
2022/04/05 04:16:49;;;;;;;19.63;13.95;;;;;;;7.94;55.71;101051.69;5029192;28;20485;-65
2022/04/05 04:19:15;;;;;;;19.50;13.70;;;;;;;7.91;55.74;101051.84;5030282;28;20049;-66
2022/04/05 04:21:42;;;;;;;21.10;15.55;;;;;;;7.91;55.99;101056.19;5030408;28;20107;-64
2022/04/05 04:24:08;;;;;;;18.25;14.23;;;;;;;7.92;56.03;101048.31;5030132;28;20068;-64
2022/04/05 04:26:35;;;;;;;19.23;13.40;;;;;;;7.91;56.01;101051.84;5030434;28;20045;-65
2022/04/05 04:29:04;;;;;;;18.58;13.57;;;;;;;7.89;56.04;101050.19;5030241;28;20049;-66
2022/04/05 04:31:31;;;;;;;16.40;13.35;;;;;;;7.89;55.93;101042.34;5029859;28;20048;-63
2022/04/05 04:34:00;;;;;;;18.85;14.65;;;;;;;7.87;56.21;101049.38;5029090;28;20092;-65
2022/04/05 04:36:27;;;;;;;18.98;13.95;;;;;;;7.85;56.33;101054.69;5030039;28;20419;-63
2022/04/05 04:38:55;;;;;;;19.27;13.77;;;;;;;7.80;56.29;101051.41;5029822;28;20502;-66
2022/04/05 04:41:22;;;;;;;18.63;13.32;;;;;;;7.78;56.16;101061.94;5029798;28;20057;-66
2022/04/05 04:43:50;;;;;;;17.95;13.60;;;;;;;7.76;56.43;101057.69;5029891;28;20457;-65
2022/04/05 04:46:17;;;;;;;16.38;12.98;;;;;;;7.73;56.53;101061.22;5029758;28;20045;-65
2022/04/05 04:48:44;;;;;;;21.10;14.02;;;;;;;7.72;56.44;101058.69;5029952;28;20560;-64
2022/04/05 04:51:12;;;;;;;19.67;13.38;;;;;;;7.75;56.53;101064.66;5028691;28;20045;-66
2022/04/05 04:53:39;;;;;;;20.65;14.00;;;;;;;7.74;56.45;101062.94;5029782;28;20045;-63
2022/04/05 04:56:06;;;;;;;5.90;4.13;;;;;;;8.21;56.81;101069.75;5029158;28;20081;-62
2022/04/05 04:58:36;;;;;;;7.70;5.50;;;;;;;9.49;58.19;101065.94;5029487;28;20656;-64
2022/04/05 05:01:03;;;;;;;19.17;13.35;;;;;;;9.30;58.61;101060.72;5029962;28;20123;-65
2022/04/05 05:03:31;;;;;;;19.85;14.15;;;;;;;8.86;59.15;101068.81;5029411;28;20052;-63
2022/04/05 05:05:58;;;;;;;20.70;14.68;;;;;;;8.62;58.91;101066.34;5028135;28;20124;-62
2022/04/05 05:08:25;;;;;;;17.90;13.25;;;;;;;8.48;58.72;101070.41;5027844;28;20076;-62
2022/04/05 05:10:52;;;;;;;15.95;13.32;;;;;;;8.38;58.39;101071.69;5029322;28;20053;-62
2022/04/05 05:13:20;;;;;;;20.23;14.27;;;;;;;8.34;58.04;101084.03;5029094;28;20564;-62
2022/04/05 05:15:55;;;;;;;19.23;13.82;;;;;;;8.28;57.81;101073.84;5029391;28;20131;-62
2022/04/05 05:18:27;;;;;;;20.30;14.07;;;;;;;8.25;57.69;101078.34;5028733;28;20053;-62
2022/04/05 05:20:54;;;;;;;19.08;13.45;;;;;;;8.25;57.45;101076.59;5029283;28;20103;-61
2022/04/05 05:23:21;;;;;;;18.75;14.65;;;;;;;8.28;57.26;101080.84;5027886;28;20053;-61
2022/04/05 05:25:48;;;;;;;18.67;14.38;;;;;;;8.26;57.14;101085.28;5027188;28;20136;-62
2022/04/05 05:28:15;;;;;;;18.90;14.50;;;;;;;8.30;57.13;101079.84;5029095;28;20443;-62
2022/04/05 05:30:42;;;;;;;22.00;15.32;;;;;;;8.31;57.01;101076.31;5029015;28;20045;-61
2022/04/05 05:33:08;;;;;;;25.27;15.43;;;;;;;8.33;57.03;101078.88;5028666;28;20049;-62
2022/04/05 05:35:35;;;;;;;21.88;15.60;;;;;;;8.33;57.03;101082.34;5028950;28;20045;-61
2022/04/05 05:38:03;;;;;;;19.52;14.18;;;;;;;8.40;56.85;101088.16;5028783;28;20414;-62
2022/04/05 05:40:30;;;;;;;22.42;14.38;;;;;;;8.45;56.93;101080.94;5027787;28;20053;-60
2022/04/05 05:42:59;;;;;;;26.17;14.88;;;;;;;8.62;56.67;101095.97;5028812;28;20505;-63
2022/04/05 05:45:27;;;;;;;21.20;15.48;;;;;;;8.63;56.74;101088.97;5028392;28;20111;-62
2022/04/05 05:47:55;;;;;;;27.70;16.50;;;;;;;8.68;56.68;101092.25;5027874;28;20103;-62
2022/04/05 05:50:22;;;;;;;17.58;12.77;;;;;;;8.83;56.80;101088.13;5028970;28;20137;-62
2022/04/05 05:52:49;;;;;;;26.80;17.63;;;;;;;9.31;56.58;101088.59;5028907;28;20132;-61
2022/04/05 05:55:17;;;;;;;23.15;16.15;;;;;;;9.19;56.77;101095.22;5026533;28;20095;-61
2022/04/05 05:57:44;;;;;;;26.70;16.30;;;;;;;9.08;56.85;101100.97;5027520;28;20456;-61
2022/04/05 06:00:17;;;;;;;21.55;16.63;;;;;;;9.00;57.02;101103.06;5028815;28;20045;-61
2022/04/05 06:02:45;;;;;;;26.10;17.45;;;;;;;8.93;57.10;101101.66;5028786;28;20096;-61
2022/04/05 06:05:12;;;;;;;24.45;19.05;;;;;;;8.98;57.25;101104.91;5028965;28;20140;-61
2022/04/05 06:07:41;;;;;;;27.55;18.92;;;;;;;9.17;56.99;101111.94;5028793;28;20387;-61
2022/04/05 06:10:11;;;;;;;25.40;18.13;;;;;;;9.05;56.99;101111.56;5029150;28;20049;-62
2022/04/05 06:12:43;;;;;;;30.15;20.83;;;;;;;9.08;56.81;101111.44;5027831;28;20107;-61
2022/04/05 06:15:12;;;;;;;27.98;19.38;;;;;;;9.11;56.70;101120.91;5029053;28;20085;-62
2022/04/05 06:17:47;;;;;;;25.80;18.95;;;;;;;9.13;56.77;101119.09;5028589;28;20053;-61
2022/04/05 06:20:16;;;;;;;24.83;19.33;;;;;;;9.15;56.65;101123.34;5029049;28;20490;-62
2022/04/05 06:22:45;;;;;;;27.75;19.10;;;;;;;9.24;56.58;101123.84;5028818;28;20103;-63
2022/04/05 06:25:14;;;;;;;33.40;21.02;;;;;;;9.30;56.39;101131.44;5028733;28;20418;-63
2022/04/05 06:27:41;;;;;;;28.70;20.73;;;;;;;9.26;56.40;101135.09;5028658;28;20050;-62
2022/04/05 06:30:10;;;;;;;25.70;19.70;;;;;;;9.32;56.54;101130.44;5026376;28;20049;-63
2022/04/05 06:32:36;;;;;;;27.25;20.55;;;;;;;9.36;56.28;101138.13;5026613;28;20041;-60
2022/04/05 06:35:05;;;;;;;28.58;21.25;;;;;;;9.40;56.35;101135.31;5027009;28;20076;-60
2022/04/05 06:37:33;;;;;;;28.52;20.15;;;;;;;9.36;56.12;101133.78;5027123;28;20049;-60
2022/04/05 06:39:59;;;;;;;26.77;20.75;;;;;;;9.43;56.08;101140.44;5026790;28;20049;-61
2022/04/05 06:42:26;;;;;;;30.10;21.52;;;;;;;9.55;55.73;101128.53;5025176;28;20099;-61
2022/04/05 06:44:53;;;;;;;30.05;20.83;;;;;;;9.58;55.70;101131.00;5029251;28;20041;-60
2022/04/05 06:47:20;;;;;;;27.95;21.10;;;;;;;9.72;55.40;101127.75;5029803;28;20045;-61
2022/04/05 06:49:47;;;;;;;28.88;20.30;;;;;;;9.95;54.79;101131.91;5030880;28;20041;-61
2022/04/05 06:52:14;;;;;;;28.83;21.00;;;;;;;10.08;54.45;101132.16;5028082;28;20095;-61
2022/04/05 06:54:41;;;;;;;25.75;20.83;;;;;;;10.27;54.21;101132.13;5029772;28;20041;-61
2022/04/05 06:57:08;;;;;;;28.10;21.17;;;;;;;10.37;53.95;101129.91;5029676;28;20209;-61
2022/04/05 06:59:40;;;;;;;26.90;20.25;;;;;;;10.52;53.75;101124.84;5030307;28;20132;-61
2022/04/05 07:02:07;;;;;;;26.55;20.88;;;;;;;10.65;53.47;101131.16;5029903;28;20929;-61
2022/04/05 07:04:33;;;;;;;30.17;20.40;;;;;;;10.74;53.21;101135.94;5030286;28;20045;-62
2022/04/05 07:07:00;;;;;;;28.73;19.50;;;;;;;10.90;53.00;101132.53;5030637;28;20049;-61
2022/04/05 07:09:27;;;;;;;29.15;21.73;;;;;;;10.99;52.81;101126.78;5030823;28;20548;-61
2022/04/05 07:11:58;;;;;;;25.45;20.50;;;;;;;11.10;52.49;101128.88;5030837;28;20038;-61
2022/04/05 07:14:24;;;;;;;30.23;20.67;;;;;;;11.21;52.31;101128.28;5030184;28;20104;-61
2022/04/05 07:16:51;;;;;;;26.13;19.98;;;;;;;11.30;52.03;101117.31;5030700;28;20441;-61
2022/04/05 07:19:18;;;;;;;26.58;20.42;;;;;;;11.40;51.75;101120.25;5029943;28;20049;-61
2022/04/05 07:21:44;;;;;;;29.15;20.15;;;;;;;11.54;51.59;101115.13;5030508;28;20045;-61
2022/04/05 07:24:11;;;;;;;28.20;20.30;;;;;;;11.59;51.47;101104.34;5030484;28;20046;-61
2022/04/05 07:26:38;;;;;;;27.48;20.35;;;;;;;11.68;51.23;101114.38;5030805;28;20049;-62
2022/04/05 07:29:05;;;;;;;29.58;20.45;;;;;;;11.80;50.99;101112.00;5030079;28;20053;-62
2022/04/05 07:31:31;;;;;;;27.83;21.33;;;;;;;11.93;50.83;101107.72;5030399;28;20072;-61
2022/04/05 07:33:58;;;;;;;26.95;20.73;;;;;;;12.05;50.61;101107.06;5029184;28;20136;-61
2022/04/05 07:36:25;;;;;;;29.27;21.10;;;;;;;12.13;50.42;101111.03;5030250;28;20076;-61
2022/04/05 07:38:52;;;;;;;28.75;21.77;;;;;;;12.16;50.55;101109.06;5030249;28;20060;-61
2022/04/05 07:41:19;;;;;;;30.17;21.75;;;;;;;12.27;50.27;101110.25;5029642;28;20054;-62
2022/04/05 07:43:47;;;;;;;28.58;21.55;;;;;;;12.40;50.01;101108.59;5029994;28;20128;-62
2022/04/05 07:46:13;;;;;;;28.85;21.65;;;;;;;12.39;49.94;101107.75;5030363;28;20076;-61
2022/04/05 07:48:40;;;;;;;28.17;21.02;;;;;;;12.54;49.61;101107.78;5030230;28;20037;-61
2022/04/05 07:51:07;;;;;;;29.05;21.55;;;;;;;12.62;49.38;101115.22;5028301;28;20050;-61
2022/04/05 07:53:34;;;;;;;29.48;22.52;;;;;;;12.79;49.29;101101.06;5029762;28;20087;-62
2022/04/05 07:56:01;;;;;;;28.13;21.42;;;;;;;12.88;48.91;101101.31;5028878;28;20049;-62
2022/04/05 07:58:27;;;;;;;25.15;21.05;;;;;;;13.05;48.33;101102.09;5029361;28;20489;-62
2022/04/05 08:00:54;;;;;;;30.45;22.05;;;;;;;13.18;48.25;101091.63;5030342;28;20038;-63
2022/04/05 08:03:22;;;;;;;25.67;20.98;;;;;;;13.04;48.53;101090.72;5030065;28;20049;-62
2022/04/05 08:05:49;;;;;;;27.52;21.00;;;;;;;13.17;47.99;101093.44;5031772;28;20080;-61
2022/04/05 08:08:16;;;;;;;30.35;22.08;;;;;;;13.28;47.89;101095.41;5030098;28;20463;-62
2022/04/05 08:11:03;;;;;;;26.45;20.88;;;;;;;13.37;47.75;101088.75;5030140;28;20045;-62
2022/04/05 08:13:29;;;;;;;29.25;21.73;;;;;;;13.55;47.24;101090.22;5030243;28;20081;-61
2022/04/05 08:15:56;;;;;;;29.40;20.88;;;;;;;13.68;46.99;101085.00;5029439;28;20049;-61
2022/04/05 08:18:23;;;;;;;9.75;7.50;;;;;;;14.02;47.07;101090.72;5029719;28;20558;-61
2022/04/05 08:20:49;;;;;;;12.02;8.57;;;;;;;14.54;47.34;101082.91;5029656;28;20099;-62
2022/04/05 08:23:16;;;;;;;14.90;13.27;;;;;;;14.87;47.57;101076.28;5027528;28;20195;-61
2022/04/05 08:25:43;;;;;;;24.60;18.77;;;;;;;14.94;47.72;101082.00;5028413;28;20408;-62
2022/04/05 08:28:10;;;;;;;21.35;18.63;;;;;;;15.05;47.25;101075.97;5028835;28;20045;-62
2022/04/05 08:30:36;;;;;;;27.35;20.77;;;;;;;15.05;47.33;101081.25;5025827;28;20046;-61
2022/04/05 08:33:04;;;;;;;30.67;21.42;;;;;;;14.94;47.17;101084.63;5029116;28;20099;-61
2022/04/05 08:35:30;;;;;;;27.23;20.13;;;;;;;15.10;46.53;101087.88;5028794;28;20068;-62
2022/04/05 08:37:57;;;;;;;25.90;21.35;;;;;;;14.87;46.41;101089.50;5029205;28;20046;-61
2022/04/05 08:40:26;;;;;;;29.60;21.80;;;;;;;15.08;46.09;101081.84;5028371;28;20057;-62
2022/04/05 08:42:55;;;;;;;30.35;21.63;;;;;;;15.20;45.61;101077.53;5029294;28;20211;-62
2022/04/05 08:45:23;;;;;;;25.98;20.95;;;;;;;15.39;45.23;101077.03;5028988;28;20430;-61
2022/04/05 08:47:53;;;;;;;26.73;21.17;;;;;;;15.41;44.92;101076.94;5029238;28;20060;-62
2022/04/05 08:50:23;;;;;;;29.15;20.90;;;;;;;15.50;44.53;101077.13;5029513;28;20049;-62
2022/04/05 08:52:50;;;;;;;25.50;21.70;;;;;;;15.65;44.21;101076.97;5029358;28;20050;-62
2022/04/05 08:55:17;;;;;;;27.25;21.13;;;;;;;15.83;43.72;101070.34;5033991;28;20084;-62
2022/04/05 08:57:45;;;;;;;25.95;21.63;;;;;;;15.95;43.04;101076.53;5036987;28;20568;-62
2022/04/05 09:00:14;;;;;;;27.45;20.73;;;;;;;16.04;43.07;101077.66;5029123;28;20049;-61
2022/04/05 09:02:52;;;;;;;28.38;22.73;;;;;;;15.95;43.09;101078.34;5029203;28;20042;-62
2022/04/05 09:05:46;;;;;;;28.48;22.23;;;;;;;16.16;42.35;101073.25;5028528;28;20057;-62
2022/04/05 09:08:18;;;;;;;28.02;21.85;;;;;;;16.10;42.80;101071.03;5027145;28;20092;-62
2022/04/05 09:10:48;;;;;;;25.73;21.70;;;;;;;16.25;42.34;101075.22;5029236;28;20053;-62
2022/04/05 09:13:18;;;;;;;27.65;21.65;;;;;;;16.33;42.22;101071.97;5027652;28;20037;-62
2022/04/05 09:15:53;;;;;;;26.25;21.58;;;;;;;16.53;41.78;101065.16;5028520;28;20061;-62
2022/04/05 09:18:40;;;;;;;26.92;21.45;;;;;;;16.70;41.12;101057.72;5028362;28;20115;-62
2022/04/05 09:21:09;;;;;;;27.73;20.40;;;;;;;16.74;40.84;101062.66;5026982;28;20041;-62
2022/04/05 09:23:39;;;;;;;24.75;20.52;;;;;;;16.59;40.72;101062.03;5028390;28;20077;-62
2022/04/05 09:26:17;;;;;;;26.73;21.58;;;;;;;16.61;40.80;101059.28;5028131;28;20042;-62
2022/04/05 09:28:46;;;;;;;26.23;21.10;;;;;;;16.89;39.94;101052.66;5027521;28;20057;-62
2022/04/05 09:31:19;;;;;;;27.75;21.60;;;;;;;16.98;39.54;101046.66;5029017;28;20144;-62
2022/04/05 09:34:05;;;;;;;28.70;21.95;;;;;;;17.28;39.44;101034.59;5028021;28;20041;-62
2022/04/05 09:36:53;;;;;;;27.02;20.77;;;;;;;17.53;39.43;101037.88;5029003;28;20046;-62
2022/04/05 09:39:21;;;;;;;27.42;21.35;;;;;;;17.62;38.86;101033.63;5027913;28;20132;-62
2022/04/05 09:42:08;;;;;;;25.45;21.42;;;;;;;17.82;38.81;101037.31;5028587;28;20493;-62
2022/04/05 09:44:37;;;;;;;29.58;20.10;;;;;;;17.91;38.47;101039.19;5026730;28;20153;-62
2022/04/05 09:47:10;;;;;;;24.52;20.65;;;;;;;18.08;38.40;101029.00;5028461;28;20129;-62
2022/04/05 09:49:39;;;;;;;27.00;21.92;;;;;;;18.33;38.35;101024.28;5028265;28;20107;-62
2022/04/05 09:52:30;;;;;;;65.53;44.83;;;;;;;18.30;38.46;101033.34;5027899;28;20045;-62
2022/04/05 09:55:16;;;;;;;9.95;8.85;;;;;;;18.50;38.62;101026.34;5027153;28;20049;-61
2022/04/05 09:57:43;;;;;;;19.65;13.77;;;;;;;18.77;38.27;101022.28;5032943;28;20076;-62
2022/04/05 10:00:18;;;;;;;16.35;14.50;;;;;;;18.87;38.62;101015.16;5028407;28;20084;-61
2022/04/05 10:03:05;;;;;;;21.55;18.20;;;;;;;18.89;38.75;101015.88;5027374;28;20087;-61
2022/04/05 10:05:35;;;;;;;15.75;13.05;;;;;;;19.09;38.79;101006.16;5027264;28;20041;-62
2022/04/05 10:08:04;;;;;;;14.60;12.52;;;;;;;19.26;38.59;101011.78;5028397;28;20049;-61
2022/04/05 10:10:31;;;;;;;16.33;13.43;;;;;;;19.41;38.52;101004.25;5027760;28;20052;-62
2022/04/05 10:12:57;;;;;;;26.92;19.65;;;;;;;19.41;38.71;101006.91;5028137;28;20520;-62
2022/04/05 10:15:25;;;;;;;18.70;14.77;;;;;;;19.62;37.97;101004.13;5027641;28;20418;-63
2022/04/05 10:17:53;;;;;;;16.83;13.50;;;;;;;19.67;38.03;100993.91;5027293;28;20049;-61
2022/04/05 10:20:22;;;;;;;20.48;14.77;;;;;;;19.70;37.90;100992.78;5030245;28;20049;-62
2022/04/05 10:22:54;;;;;;;31.33;23.30;;;;;;;19.78;37.72;100995.56;5032251;28;20045;-61
2022/04/05 10:25:24;;;;;;;23.27;19.17;;;;;;;19.77;37.60;100996.56;5031589;28;20092;-62
2022/04/05 10:27:51;;;;;;;18.60;13.88;;;;;;;19.84;38.08;100992.38;5032296;28;20414;-62
2022/04/05 10:30:26;;;;;;;22.73;16.90;;;;;;;19.83;37.62;100995.19;5031608;28;20441;-62
2022/04/05 10:33:20;;;;;;;33.35;26.13;;;;;;;19.74;37.93;100992.38;5031863;28;20589;-62
2022/04/05 10:35:52;;;;;;;23.63;18.38;;;;;;;19.97;37.04;100986.78;5029130;28;20045;-62
2022/04/05 10:38:19;;;;;;;22.52;17.77;;;;;;;20.18;36.76;100986.59;5025651;28;20049;-62
2022/04/05 10:41:20;;;;;;;20.70;16.80;;;;;;;20.33;36.73;100980.81;5012169;28;20046;-62
2022/04/05 10:44:08;;;;;;;18.83;16.67;;;;;;;20.46;36.67;100972.50;5016758;28;20081;-62
2022/04/05 10:46:40;;;;;;;23.60;19.00;;;;;;;20.67;35.79;100965.09;5010790;28;20100;-64
2022/04/05 10:49:47;;;;;;;24.58;20.05;;;;;;;20.38;36.35;100967.88;5030891;28;20103;-63
2022/04/05 10:52:28;;;;;;;23.30;19.35;;;;;;;20.57;35.51;100956.31;5030401;28;20076;-63
2022/04/05 10:55:01;;;;;;;46.72;28.83;;;;;;;20.70;34.44;100959.47;5029657;28;20053;-63
2022/04/05 10:57:38;;;;;;;35.55;25.77;;;;;;;20.63;33.91;100962.84;5028939;28;20053;-63
2022/04/05 11:00:26;;;;;;;21.40;17.95;;;;;;;20.90;33.05;100951.41;5044759;28;20057;-63
2022/04/05 11:02:52;;;;;;;39.73;28.30;;;;;;;20.97;32.17;100954.28;5051516;28;20456;-62
2022/04/05 11:05:19;;;;;;;37.40;26.33;;;;;;;20.75;32.27;100947.53;5050782;28;20887;-63
2022/04/05 11:07:51;;;;;;;32.97;23.50;;;;;;;20.88;31.88;100951.53;5045003;28;20482;-64
2022/04/05 11:10:26;;;;;;;31.63;22.83;;;;;;;21.00;31.21;100954.84;5030899;28;20057;-63
2022/04/05 11:13:07;;;;;;;37.83;25.00;;;;;;;21.04;31.30;100956.22;5031185;28;20525;-63
2022/04/05 11:15:41;;;;;;;30.45;19.65;;;;;;;21.08;31.03;100955.91;5029203;28;20151;-62
2022/04/05 11:18:10;;;;;;;41.45;24.30;;;;;;;21.06;31.34;100942.72;5029408;28;20064;-61
2022/04/05 11:20:38;;;;;;;35.25;23.13;;;;;;;20.37;31.78;100951.03;5030922;28;20047;-62
2022/04/05 11:23:09;;;;;;;27.00;20.48;;;;;;;20.60;31.76;100947.16;5030428;28;20088;-62